createdAt,value
2023-12-30T00:02:23.081Z,1.80
2023-12-30T00:04:49.945Z,1.95
2023-12-30T00:07:17.017Z,2.20
2023-12-30T00:09:44.007Z,1.83
2023-12-30T00:12:11.098Z,2.03
2023-12-30T00:14:38.061Z,1.92
2023-12-30T00:17:06.128Z,2.05
2023-12-30T00:19:36.406Z,1.60
2023-12-30T00:22:03.944Z,1.80
2023-12-30T00:24:31.431Z,1.60
2023-12-30T00:26:58.417Z,1.77
2023-12-30T00:29:25.294Z,1.65
2023-12-30T00:31:52.745Z,1.80
2023-12-30T00:34:19.879Z,1.70
2023-12-30T00:36:47.714Z,1.98
2023-12-30T00:39:14.681Z,1.65
2023-12-30T00:41:41.661Z,1.92
2023-12-30T00:44:08.585Z,1.80
2023-12-30T00:46:35.492Z,2.08
2023-12-30T00:49:04.269Z,1.92
2023-12-30T00:51:32.036Z,2.05
2023-12-30T00:53:58.909Z,1.90
2023-12-30T00:56:26.387Z,1.70
2023-12-30T00:58:53.223Z,1.73
2023-12-30T01:01:20.233Z,1.70
2023-12-30T01:03:47.231Z,2.00
2023-12-30T01:06:14.259Z,1.73
2023-12-30T01:08:41.114Z,1.77
2023-12-30T01:11:08.042Z,1.50
2023-12-30T01:13:35.049Z,2.05
2023-12-30T01:16:06.217Z,2.22
2023-12-30T01:18:33.255Z,1.88
2023-12-30T01:21:00.128Z,1.83
2023-12-30T01:23:29.689Z,1.88
2023-12-30T01:25:56.566Z,2.10
2023-12-30T01:28:23.457Z,2.10
2023-12-30T01:30:50.532Z,1.88
2023-12-30T01:33:17.675Z,1.77
2023-12-30T01:35:44.613Z,1.58
2023-12-30T01:38:11.912Z,2.13
2023-12-30T01:40:38.829Z,1.90
2023-12-30T01:43:07.582Z,1.90
2023-12-30T01:45:34.598Z,1.80
2023-12-30T01:48:03.300Z,1.75
2023-12-30T01:50:30.739Z,1.73
2023-12-30T01:52:57.681Z,1.80
2023-12-30T01:55:24.611Z,1.60
2023-12-30T01:57:51.472Z,1.85
2023-12-30T02:00:21.466Z,1.60
2023-12-30T02:02:50.068Z,1.70
2023-12-30T02:05:17.430Z,1.98
2023-12-30T02:07:47.559Z,1.85
2023-12-30T02:10:14.917Z,1.92
2023-12-30T02:12:41.908Z,2.03
2023-12-30T02:15:15.582Z,1.80
2023-12-30T02:17:42.733Z,1.80
2023-12-30T02:20:10.647Z,1.60
2023-12-30T02:22:45.603Z,1.80
2023-12-30T02:25:13.619Z,1.98
2023-12-30T02:27:42.474Z,2.10
2023-12-30T02:30:10.667Z,1.70
2023-12-30T02:32:37.513Z,1.98
2023-12-30T02:35:05.228Z,1.77
2023-12-30T02:37:32.114Z,2.05
2023-12-30T02:39:59.072Z,1.90
2023-12-30T02:42:25.946Z,1.98
2023-12-30T02:44:54.914Z,1.80
2023-12-30T02:47:23.025Z,2.00
2023-12-30T02:49:50.076Z,1.88
2023-12-30T02:52:16.976Z,1.88
2023-12-30T02:54:43.885Z,1.88
2023-12-30T02:57:10.690Z,1.92
2023-12-30T02:59:37.606Z,1.80
2023-12-30T03:02:04.712Z,1.80
2023-12-30T03:04:31.813Z,2.00
2023-12-30T03:06:58.823Z,1.70
2023-12-30T03:09:25.827Z,2.03
2023-12-30T03:11:53.696Z,2.20
2023-12-30T03:14:20.575Z,2.30
2023-12-30T03:16:47.393Z,2.03
2023-12-30T03:19:14.667Z,1.98
2023-12-30T03:21:41.522Z,1.90
2023-12-30T03:24:08.524Z,2.10
2023-12-30T03:26:35.416Z,2.38
2023-12-30T03:29:02.372Z,2.50
2023-12-30T03:31:29.313Z,2.00
2023-12-30T03:33:57.145Z,2.17
2023-12-30T03:36:24.132Z,2.25
2023-12-30T03:38:53.030Z,2.10
2023-12-30T03:41:20.046Z,1.98
2023-12-30T03:43:47.082Z,2.30
2023-12-30T03:46:14.110Z,2.10
2023-12-30T03:48:41.048Z,2.78
2023-12-30T03:51:08.128Z,2.30
2023-12-30T03:53:35.046Z,2.28
2023-12-30T03:56:01.969Z,2.10
2023-12-30T03:58:29.150Z,2.30
2023-12-30T04:00:56.206Z,2.40
2023-12-30T04:03:23.243Z,2.10
2023-12-30T04:05:50.187Z,2.13
2023-12-30T04:08:17.057Z,2.67
2023-12-30T04:10:43.965Z,2.80
2023-12-30T04:13:11.170Z,2.55
2023-12-30T04:15:38.451Z,2.10
2023-12-30T04:18:05.906Z,2.20
2023-12-30T04:20:32.995Z,2.17
2023-12-30T04:23:00.782Z,2.45
2023-12-30T04:25:28.344Z,2.47
2023-12-30T04:27:55.379Z,2.20
2023-12-30T04:30:22.376Z,2.00
2023-12-30T04:32:49.484Z,2.97
2023-12-30T04:35:16.446Z,2.33
2023-12-30T04:37:43.323Z,2.17
2023-12-30T04:40:10.526Z,2.63
2023-12-30T04:42:37.538Z,3.42
2023-12-30T04:45:04.989Z,2.47
2023-12-30T04:47:31.931Z,2.78
2023-12-30T04:49:59.168Z,2.47
2023-12-30T04:52:26.256Z,2.60
2023-12-30T04:54:53.111Z,2.53
2023-12-30T04:57:20.124Z,2.63
2023-12-30T04:59:46.974Z,2.33
2023-12-30T05:02:13.905Z,2.42
2023-12-30T05:04:44.681Z,2.70
2023-12-30T05:07:11.642Z,2.75
2023-12-30T05:09:38.565Z,2.28
2023-12-30T05:12:06.096Z,2.80
2023-12-30T05:14:32.941Z,2.13
2023-12-30T05:16:59.781Z,2.17
2023-12-30T05:19:26.628Z,2.88
2023-12-30T05:21:55.016Z,2.80
2023-12-30T05:24:22.675Z,2.53
2023-12-30T05:26:50.843Z,2.38
2023-12-30T05:29:17.936Z,2.50
2023-12-30T05:31:44.834Z,3.22
2023-12-30T05:34:12.309Z,2.40
2023-12-30T05:36:39.289Z,2.70
2023-12-30T05:39:06.093Z,3.45
2023-12-30T05:41:33.046Z,2.58
2023-12-30T05:43:59.892Z,2.60
2023-12-30T05:46:27.888Z,2.60
2023-12-30T05:48:55.203Z,2.80
2023-12-30T05:51:24.720Z,2.55
2023-12-30T05:53:51.816Z,2.30
2023-12-30T05:56:25.746Z,3.17
2023-12-30T05:58:56.275Z,2.88
2023-12-30T06:01:23.286Z,2.30
2023-12-30T06:03:50.435Z,2.75
2023-12-30T06:06:17.750Z,2.97
2023-12-30T06:08:44.569Z,2.60
2023-12-30T06:11:12.997Z,2.72
2023-12-30T06:13:43.171Z,2.80
2023-12-30T06:16:11.655Z,3.67
2023-12-30T06:18:38.896Z,3.38
2023-12-30T06:21:06.229Z,2.80
2023-12-30T06:23:33.571Z,3.05
2023-12-30T06:26:02.568Z,2.85
2023-12-30T06:28:29.581Z,3.40
2023-12-30T06:30:56.882Z,2.88
2023-12-30T06:33:24.730Z,3.03
2023-12-30T06:35:51.866Z,2.63
2023-12-30T06:38:18.764Z,2.80
2023-12-30T06:40:48.667Z,2.70
2023-12-30T06:43:18.004Z,3.38
2023-12-30T06:45:45.017Z,2.95
2023-12-30T06:48:11.957Z,2.88
2023-12-30T06:50:38.847Z,3.20
2023-12-30T06:53:06.121Z,3.05
2023-12-30T06:55:38.745Z,3.65
2023-12-30T06:58:09.763Z,3.65
2023-12-30T07:00:37.395Z,2.80
2023-12-30T07:03:05.159Z,3.38
2023-12-30T07:05:37.472Z,3.08
2023-12-30T07:08:04.926Z,3.13
2023-12-30T07:10:31.855Z,2.92
2023-12-30T07:12:58.765Z,2.95
2023-12-30T07:15:25.841Z,3.42
2023-12-30T07:17:52.762Z,3.15
2023-12-30T07:20:19.746Z,3.83
2023-12-30T07:22:46.579Z,2.80
2023-12-30T07:25:14.331Z,3.40
2023-12-30T07:27:41.228Z,3.13
2023-12-30T07:30:08.463Z,3.15
2023-12-30T07:32:36.109Z,3.65
2023-12-30T07:35:04.786Z,3.17
2023-12-30T07:37:31.814Z,3.20
2023-12-30T07:39:59.000Z,3.28
2023-12-30T07:42:26.346Z,3.08
2023-12-30T07:44:53.580Z,2.83
2023-12-30T07:47:20.662Z,3.15
2023-12-30T07:49:50.582Z,3.15
2023-12-30T07:52:17.885Z,2.60
2023-12-30T07:54:44.932Z,3.20
2023-12-30T07:57:11.835Z,3.10
2023-12-30T07:59:38.706Z,2.60
2023-12-30T08:02:05.665Z,2.80
2023-12-30T08:04:32.598Z,2.67
2023-12-30T08:06:59.496Z,2.80
2023-12-30T08:09:26.772Z,2.70
2023-12-30T08:12:01.818Z,3.03
2023-12-30T08:14:30.311Z,2.70
2023-12-30T08:16:57.608Z,3.20
2023-12-30T08:19:24.618Z,2.78
2023-12-30T08:21:51.518Z,3.20
2023-12-30T08:24:20.461Z,3.08
2023-12-30T08:26:47.557Z,2.90
2023-12-30T08:29:15.598Z,3.58
2023-12-30T08:31:48.825Z,3.75
2023-12-30T08:34:16.432Z,3.30
2023-12-30T08:36:44.268Z,3.50
2023-12-30T08:39:11.750Z,3.60
2023-12-30T08:41:38.799Z,3.80
2023-12-30T08:44:05.756Z,3.55
2023-12-30T08:46:32.917Z,3.83
2023-12-30T08:49:01.297Z,3.50
2023-12-30T08:51:31.046Z,3.00
2023-12-30T08:53:58.344Z,3.67
2023-12-30T08:56:25.627Z,3.42
2023-12-30T08:58:52.702Z,3.35
2023-12-30T09:01:19.910Z,3.25
2023-12-30T09:03:47.413Z,3.25
2023-12-30T09:06:14.909Z,3.97
2023-12-30T09:08:43.132Z,3.75
2023-12-30T09:11:22.835Z,3.33
2023-12-30T09:13:50.610Z,3.92
2023-12-30T09:16:17.664Z,3.45
2023-12-30T09:18:44.838Z,3.50
2023-12-30T09:21:12.347Z,3.90
2023-12-30T09:23:39.463Z,3.30
2023-12-30T09:26:06.502Z,3.42
2023-12-30T09:28:34.689Z,4.22
2023-12-30T09:31:02.509Z,3.45
2023-12-30T09:33:29.930Z,3.47
2023-12-30T09:35:57.117Z,3.67
2023-12-30T09:38:25.812Z,3.90
2023-12-30T09:40:56.366Z,3.10
2023-12-30T09:43:29.645Z,3.35
2023-12-30T09:45:58.162Z,3.70
2023-12-30T09:48:26.901Z,3.25
2023-12-30T09:50:54.878Z,3.35
2023-12-30T09:53:23.390Z,3.20
2023-12-30T09:55:54.265Z,3.55
2023-12-30T09:58:22.214Z,3.25
2023-12-30T10:00:49.671Z,3.53
2023-12-30T10:03:17.034Z,3.60
2023-12-30T10:05:44.317Z,3.05
2023-12-30T10:08:11.911Z,3.38
2023-12-30T10:10:44.957Z,3.20
2023-12-30T10:13:23.731Z,3.20
2023-12-30T10:15:51.007Z,3.05
2023-12-30T10:18:18.382Z,3.03
2023-12-30T10:20:46.264Z,2.67
2023-12-30T10:23:13.269Z,2.92
2023-12-30T10:25:41.020Z,3.38
2023-12-30T10:28:08.096Z,2.63
2023-12-30T10:30:35.899Z,2.83
2023-12-30T10:33:13.323Z,3.15
2023-12-30T10:35:43.650Z,2.88
2023-12-30T10:38:11.553Z,3.10
2023-12-30T10:40:41.554Z,2.80
2023-12-30T10:43:09.352Z,2.97
2023-12-30T10:45:36.649Z,3.00
2023-12-30T10:48:03.853Z,2.83
2023-12-30T10:50:31.883Z,3.03
2023-12-30T10:53:04.326Z,3.00
2023-12-30T10:55:35.147Z,2.92
2023-12-30T10:58:18.700Z,3.22
2023-12-30T11:00:46.504Z,3.45
2023-12-30T11:03:13.552Z,3.05
2023-12-30T11:05:46.270Z,3.17
2023-12-30T11:08:13.342Z,3.53
2023-12-30T11:10:41.485Z,3.05
2023-12-30T11:13:09.821Z,2.90
2023-12-30T11:15:39.416Z,2.55
2023-12-30T11:18:06.816Z,3.20
2023-12-30T11:20:34.989Z,3.35
2023-12-30T11:23:06.387Z,2.75
2023-12-30T11:25:44.759Z,2.80
2023-12-30T11:28:22.093Z,3.45
2023-12-30T11:31:02.078Z,2.80
2023-12-30T11:33:29.409Z,2.75
2023-12-30T11:35:56.965Z,3.20
2023-12-30T11:38:26.923Z,2.80
2023-12-30T11:40:55.633Z,3.03
2023-12-30T11:43:22.957Z,3.35
2023-12-30T11:45:50.046Z,2.75
2023-12-30T11:48:17.220Z,3.72
2023-12-30T11:50:44.369Z,3.20
2023-12-30T11:53:11.289Z,2.80
2023-12-30T11:55:38.262Z,2.88
2023-12-30T11:58:05.195Z,2.75
2023-12-30T12:00:32.193Z,3.00
2023-12-30T12:02:59.148Z,3.50
2023-12-30T12:05:26.551Z,3.28
2023-12-30T12:07:53.515Z,2.70
2023-12-30T12:10:20.688Z,3.10
2023-12-30T12:12:47.709Z,3.20
2023-12-30T12:15:15.029Z,2.97
2023-12-30T12:17:42.313Z,2.55
2023-12-30T12:20:11.826Z,2.90
2023-12-30T12:22:39.459Z,2.90
2023-12-30T12:25:07.115Z,2.85
2023-12-30T12:27:34.041Z,2.97
2023-12-30T12:30:01.622Z,3.10
2023-12-30T12:32:30.211Z,3.13
2023-12-30T12:34:58.929Z,2.72
2023-12-30T12:37:26.303Z,3.00
2023-12-30T12:39:53.204Z,3.75
2023-12-30T12:42:27.527Z,2.92
2023-12-30T12:44:57.910Z,2.70
2023-12-30T12:47:25.035Z,3.03
2023-12-30T12:49:52.221Z,3.15
2023-12-30T12:52:19.313Z,2.80
2023-12-30T12:54:46.287Z,2.58
2023-12-30T12:57:13.278Z,2.60
2023-12-30T12:59:40.909Z,2.90
2023-12-30T13:02:10.044Z,2.58
2023-12-30T13:04:37.480Z,3.42
2023-12-30T13:07:07.031Z,3.15
2023-12-30T13:09:53.093Z,2.80
2023-12-30T13:12:23.481Z,2.88
2023-12-30T13:14:52.543Z,2.90
2023-12-30T13:17:20.144Z,2.67
2023-12-30T13:19:47.465Z,2.70
2023-12-30T13:22:14.996Z,2.75
2023-12-30T13:24:42.208Z,2.53
2023-12-30T13:27:10.913Z,3.00
2023-12-30T13:29:38.126Z,2.80
2023-12-30T13:32:05.766Z,2.92
2023-12-30T13:34:33.280Z,3.00
2023-12-30T13:37:06.044Z,2.67
2023-12-30T13:39:38.693Z,2.47
2023-12-30T13:42:09.145Z,2.90
2023-12-30T13:44:44.205Z,2.47
2023-12-30T13:47:30.645Z,2.78
2023-12-30T13:50:12.687Z,2.63
2023-12-30T13:52:39.721Z,2.90
2023-12-30T13:55:14.997Z,2.75
2023-12-30T13:57:43.470Z,2.83
2023-12-30T14:00:11.676Z,2.90
2023-12-30T14:02:40.005Z,3.00
2023-12-30T14:05:14.454Z,2.72
2023-12-30T14:07:41.572Z,2.63
2023-12-30T14:10:11.673Z,2.72
2023-12-30T14:12:40.673Z,2.92
2023-12-30T14:15:13.450Z,2.83
2023-12-30T14:17:42.128Z,2.67
2023-12-30T14:20:11.258Z,2.50
2023-12-30T14:22:38.435Z,2.50
2023-12-30T14:25:06.061Z,3.10
2023-12-30T14:27:37.007Z,2.80
2023-12-30T14:30:07.387Z,2.85
2023-12-30T14:32:35.090Z,2.88
2023-12-30T14:35:02.798Z,3.30
2023-12-30T14:37:29.933Z,2.67
2023-12-30T14:39:56.966Z,2.80
2023-12-30T14:42:24.072Z,2.78
2023-12-30T14:44:51.048Z,3.08
2023-12-30T14:47:18.761Z,2.85
2023-12-30T14:49:45.795Z,3.10
2023-12-30T14:52:13.448Z,2.78
2023-12-30T14:54:40.711Z,2.88
2023-12-30T14:57:10.283Z,2.90
2023-12-30T14:59:37.360Z,3.13
2023-12-30T15:02:05.512Z,2.92
2023-12-30T15:04:32.762Z,2.97
2023-12-30T15:07:00.574Z,3.40
2023-12-30T15:09:27.498Z,3.10
2023-12-30T15:11:54.457Z,2.70
2023-12-30T15:14:21.436Z,3.00
2023-12-30T15:16:48.464Z,3.03
2023-12-30T15:19:15.481Z,3.38
2023-12-30T15:21:45.041Z,2.88
2023-12-30T15:24:13.616Z,2.97
2023-12-30T15:26:40.595Z,2.90
2023-12-30T15:29:07.615Z,3.33
2023-12-30T15:31:34.651Z,2.88
2023-12-30T15:34:01.749Z,3.20
2023-12-30T15:36:30.148Z,3.33
2023-12-30T15:38:58.305Z,2.80
2023-12-30T15:41:25.438Z,2.90
2023-12-30T15:43:52.377Z,2.97
2023-12-30T15:46:19.540Z,2.80
2023-12-30T15:48:46.584Z,3.22
2023-12-30T15:51:13.596Z,3.08
2023-12-30T15:53:41.742Z,3.22
2023-12-30T15:56:08.719Z,3.05
2023-12-30T15:58:36.293Z,3.45
2023-12-30T16:01:03.768Z,3.00
2023-12-30T16:03:30.848Z,3.35
2023-12-30T16:05:57.957Z,2.92
2023-12-30T16:08:24.962Z,3.28
2023-12-30T16:10:51.958Z,2.95
2023-12-30T16:13:18.938Z,2.70
2023-12-30T16:15:50.831Z,3.58
2023-12-30T16:18:17.877Z,2.50
2023-12-30T16:20:45.102Z,3.00
2023-12-30T16:23:12.295Z,2.88
2023-12-30T16:25:39.306Z,2.75
2023-12-30T16:28:06.388Z,2.60
2023-12-30T16:30:33.399Z,2.90
2023-12-30T16:33:01.753Z,2.67
2023-12-30T16:35:29.304Z,2.90
2023-12-30T16:37:56.319Z,3.00
2023-12-30T16:40:23.363Z,2.60
2023-12-30T16:42:50.375Z,2.90
2023-12-30T16:45:17.603Z,3.28
2023-12-30T16:47:44.676Z,2.80
2023-12-30T16:50:11.848Z,3.00
2023-12-30T16:52:38.971Z,2.50
2023-12-30T16:55:11.722Z,2.90
2023-12-30T16:57:39.167Z,2.67
2023-12-30T17:00:10.202Z,2.85
2023-12-30T17:02:37.904Z,2.70
2023-12-30T17:05:05.235Z,2.80
2023-12-30T17:07:32.967Z,3.30
2023-12-30T17:10:01.482Z,3.30
2023-12-30T17:12:28.996Z,4.18
2023-12-30T17:14:55.901Z,2.90
2023-12-30T17:17:23.079Z,3.22
2023-12-30T17:19:50.545Z,3.00
2023-12-30T17:22:17.592Z,3.20
2023-12-30T17:24:44.601Z,2.60
2023-12-30T17:27:11.572Z,2.72
2023-12-30T17:29:39.273Z,3.15
2023-12-30T17:32:09.780Z,2.80
2023-12-30T17:34:37.043Z,2.92
2023-12-30T17:37:04.258Z,2.83
2023-12-30T17:39:31.272Z,3.10
2023-12-30T17:42:01.739Z,5.05
2023-12-30T17:44:31.476Z,4.28
2023-12-30T17:46:58.475Z,3.90
2023-12-30T17:49:25.684Z,3.10
2023-12-30T17:51:52.621Z,3.08
2023-12-30T17:54:19.618Z,3.60
2023-12-30T17:56:46.558Z,3.63
2023-12-30T17:59:13.509Z,3.30
2023-12-30T18:01:40.741Z,3.10
2023-12-30T18:04:07.841Z,3.40
2023-12-30T18:06:34.807Z,2.90
2023-12-30T18:09:01.788Z,2.65
2023-12-30T18:11:29.920Z,2.92
2023-12-30T18:13:56.865Z,2.97
2023-12-30T18:16:24.184Z,2.70
2023-12-30T18:18:51.324Z,3.13
2023-12-30T18:21:18.365Z,2.60
2023-12-30T18:23:45.221Z,2.80
2023-12-30T18:26:13.291Z,3.17
2023-12-30T18:28:40.900Z,2.72
2023-12-30T18:31:07.996Z,2.97
2023-12-30T18:33:35.163Z,3.17
2023-12-30T18:36:02.141Z,2.90
2023-12-30T18:38:30.433Z,2.78
2023-12-30T18:41:00.404Z,3.08
2023-12-30T18:43:27.366Z,2.60
2023-12-30T18:45:54.296Z,3.05
2023-12-30T18:48:21.442Z,3.00
2023-12-30T18:50:49.133Z,2.45
2023-12-30T18:53:16.179Z,2.85
2023-12-30T18:55:43.672Z,3.00
2023-12-30T18:58:11.059Z,2.60
2023-12-30T19:00:38.122Z,2.55
2023-12-30T19:03:07.644Z,2.83
2023-12-30T19:08:05.504Z,2.40
2023-12-30T19:10:32.375Z,2.53
2023-12-30T19:12:59.414Z,3.17
2023-12-30T19:15:26.381Z,2.90
2023-12-30T19:17:53.419Z,2.63
2023-12-30T19:20:22.360Z,2.47
2023-12-30T19:22:49.374Z,2.33
2023-12-30T19:25:16.454Z,2.58
2023-12-30T19:27:43.665Z,2.83
2023-12-30T19:30:11.029Z,2.35
2023-12-30T19:32:38.137Z,2.60
2023-12-30T19:35:05.885Z,3.40
2023-12-30T19:37:33.364Z,2.72
2023-12-30T19:40:00.471Z,3.00
2023-12-30T19:42:27.389Z,3.55
2023-12-30T19:44:55.458Z,3.00
2023-12-30T19:47:22.360Z,3.28
2023-12-30T19:49:49.378Z,3.20
2023-12-30T19:52:17.555Z,2.72
2023-12-30T19:54:44.555Z,3.53
2023-12-30T19:57:11.520Z,3.10
2023-12-30T19:59:40.486Z,3.28
2023-12-30T20:02:08.228Z,3.75
2023-12-30T20:04:40.076Z,3.50
2023-12-30T20:07:10.305Z,2.95
2023-12-30T20:09:37.351Z,3.60
2023-12-30T20:12:04.450Z,3.97
2023-12-30T20:14:31.397Z,4.15
2023-12-30T20:17:01.779Z,3.70
2023-12-30T20:19:31.992Z,3.42
2023-12-30T20:21:58.955Z,3.17
2023-12-30T20:24:27.424Z,3.10
2023-12-30T20:26:57.656Z,3.88
2023-12-30T20:29:24.755Z,3.80
2023-12-30T20:31:54.211Z,3.30
2023-12-30T20:34:23.189Z,3.53
2023-12-30T20:36:50.536Z,3.17
2023-12-30T20:39:17.495Z,3.42
2023-12-30T20:41:44.366Z,4.05
2023-12-30T20:44:11.294Z,3.85
2023-12-30T20:46:38.948Z,4.30
2023-12-30T20:49:06.048Z,4.20
2023-12-30T20:51:33.176Z,3.97
2023-12-30T20:54:00.880Z,4.22
2023-12-30T20:56:28.225Z,4.03
2023-12-30T20:58:55.145Z,3.83
2023-12-30T21:01:22.284Z,4.15
2023-12-30T21:03:50.043Z,3.20
2023-12-30T21:06:16.992Z,3.42
2023-12-30T21:08:47.097Z,3.70
2023-12-30T21:11:14.209Z,3.17
2023-12-30T21:13:42.110Z,3.13
2023-12-30T21:16:09.271Z,3.92
2023-12-30T21:18:36.846Z,4.00
2023-12-30T21:21:05.402Z,4.00
2023-12-30T21:23:32.281Z,3.88
2023-12-30T21:25:59.481Z,3.90
2023-12-30T21:28:30.953Z,3.60
2023-12-30T21:31:01.556Z,3.50
2023-12-30T21:33:28.561Z,3.38
2023-12-30T21:35:55.608Z,3.28
2023-12-30T21:38:22.617Z,3.08
2023-12-30T21:40:49.955Z,2.80
2023-12-30T21:43:17.744Z,3.03
2023-12-30T21:45:44.686Z,3.08
2023-12-30T21:48:14.037Z,3.00
2023-12-30T21:50:41.173Z,2.92
2023-12-30T21:53:08.249Z,3.10
2023-12-30T21:55:35.359Z,3.00
2023-12-30T21:58:03.664Z,3.25
2023-12-30T22:00:30.593Z,3.60
2023-12-30T22:02:57.602Z,3.13
2023-12-30T22:05:24.545Z,3.13
2023-12-30T22:07:51.487Z,3.20
2023-12-30T22:10:18.789Z,3.30
2023-12-30T22:12:45.750Z,3.60
2023-12-30T22:15:12.942Z,3.03
2023-12-30T22:17:39.990Z,3.95
2023-12-30T22:20:07.618Z,3.17
2023-12-30T22:22:34.761Z,3.00
2023-12-30T22:25:03.669Z,3.28
2023-12-30T22:27:30.874Z,2.70
2023-12-30T22:30:01.595Z,2.45
2023-12-30T22:32:29.285Z,3.23
2023-12-30T22:34:56.726Z,2.88
2023-12-30T22:37:23.722Z,2.53
2023-12-30T22:39:50.666Z,3.08
2023-12-30T22:42:18.473Z,3.22
2023-12-30T22:44:45.379Z,3.00
2023-12-30T22:47:12.309Z,3.53
2023-12-30T22:49:39.254Z,2.95
2023-12-30T22:52:06.544Z,2.95
2023-12-30T22:54:33.497Z,2.75
2023-12-30T22:57:00.557Z,2.90
2023-12-30T22:59:27.454Z,3.03
2023-12-30T23:01:54.469Z,2.80
2023-12-30T23:04:21.488Z,3.15
2023-12-30T23:06:48.875Z,2.90
2023-12-30T23:09:16.030Z,2.88
2023-12-30T23:11:43.381Z,2.95
2023-12-30T23:14:10.313Z,3.08
2023-12-30T23:16:37.303Z,2.78
2023-12-30T23:19:04.392Z,3.13
2023-12-30T23:21:32.196Z,3.05
2023-12-30T23:24:02.309Z,3.22
2023-12-30T23:26:29.426Z,3.17
2023-12-30T23:28:56.472Z,3.25
2023-12-30T23:31:23.638Z,3.58
2023-12-30T23:33:50.831Z,3.35
2023-12-30T23:36:17.788Z,3.08
2023-12-30T23:38:44.847Z,3.05
2023-12-30T23:41:11.838Z,3.22
2023-12-30T23:43:38.751Z,3.20
2023-12-30T23:46:05.825Z,3.20
2023-12-30T23:48:32.913Z,3.30
2023-12-30T23:51:00.273Z,3.22
2023-12-30T23:53:27.188Z,3.17
2023-12-30T23:55:54.203Z,2.80
2023-12-30T23:58:21.189Z,3.13
